createdAt,value
2023-03-04T00:03:57.483Z,4.58
2023-03-04T00:09:03.828Z,4.60
2023-03-04T00:14:06.389Z,4.58
2023-03-04T00:19:09.115Z,4.60
2023-03-04T00:24:13.110Z,4.57
2023-03-04T00:29:15.779Z,4.56
2023-03-04T00:34:18.369Z,4.52
2023-03-04T00:39:22.284Z,4.51
2023-03-04T00:44:24.872Z,4.59
2023-03-04T00:49:27.433Z,4.59
2023-03-04T00:54:31.346Z,4.58
2023-03-04T00:59:33.956Z,4.57
2023-03-04T01:04:36.891Z,4.55
2023-03-04T01:09:40.786Z,4.58
2023-03-04T01:14:44.487Z,4.58
2023-03-04T01:19:47.250Z,4.55
2023-03-04T01:24:51.145Z,4.54
2023-03-04T01:29:53.697Z,4.54
2023-03-04T01:34:56.254Z,4.55
2023-03-04T01:40:00.189Z,4.56
2023-03-04T01:45:03.184Z,4.53
2023-03-04T01:50:12.385Z,4.55
2023-03-04T01:55:19.838Z,4.54
2023-03-04T02:00:27.807Z,4.49
2023-03-04T02:05:30.956Z,4.56
2023-03-04T02:10:35.498Z,4.52
2023-03-04T02:15:38.197Z,4.51
2023-03-04T02:20:49.727Z,4.48
2023-03-04T02:26:08.355Z,4.49
2023-03-04T02:31:23.610Z,4.51
2023-03-04T02:36:26.675Z,4.50
2023-03-04T02:41:31.480Z,4.52
2023-03-04T02:46:34.048Z,4.47
2023-03-04T02:51:36.676Z,4.46
2023-03-04T02:56:40.622Z,4.46
2023-03-04T03:01:43.355Z,4.47
2023-03-04T03:06:45.976Z,4.45
2023-03-04T03:11:49.924Z,4.46
2023-03-04T03:16:52.462Z,4.44
2023-03-04T03:21:55.019Z,4.45
2023-03-04T03:26:59.004Z,4.42
2023-03-04T03:32:01.747Z,4.44
2023-03-04T03:37:05.364Z,4.42
2023-03-04T03:42:09.125Z,4.42
2023-03-04T03:47:11.674Z,4.42
2023-03-04T03:52:14.396Z,4.44
2023-03-04T03:57:18.331Z,4.44
2023-03-04T04:02:21.048Z,4.43
2023-03-04T04:07:23.662Z,4.39
2023-03-04T04:12:27.625Z,4.39
2023-03-04T04:17:30.260Z,4.37
2023-03-04T04:22:32.814Z,4.44
2023-03-04T04:27:36.738Z,4.46
2023-03-04T04:32:39.280Z,4.45
2023-03-04T04:37:41.814Z,4.41
2023-03-04T04:42:45.687Z,4.41
2023-03-04T04:47:48.257Z,4.37
2023-03-04T04:52:51.269Z,4.37
2023-03-04T04:57:55.141Z,4.35
2023-03-04T05:02:57.763Z,4.35
2023-03-04T05:08:00.328Z,4.31
2023-03-04T05:13:04.216Z,4.31
2023-03-04T05:18:06.942Z,4.26
2023-03-04T05:23:09.495Z,4.25
2023-03-04T05:28:13.679Z,4.20
2023-03-04T05:33:17.961Z,4.20
2023-03-04T05:38:21.239Z,4.23
2023-03-04T05:43:25.112Z,4.22
2023-03-04T05:48:28.932Z,4.19
2023-03-04T05:53:32.320Z,4.15
2023-03-04T05:58:36.278Z,4.06
2023-03-04T06:03:38.937Z,4.01
2023-03-04T06:08:41.559Z,3.95
2023-03-04T06:13:46.434Z,3.86
2023-03-04T06:18:48.995Z,3.84
2023-03-04T06:23:51.538Z,3.77
2023-03-04T06:28:56.982Z,3.69
2023-03-04T06:33:59.656Z,3.76
2023-03-04T06:39:03.639Z,3.78
2023-03-04T06:44:08.121Z,3.80
2023-03-04T06:49:11.046Z,3.88
2023-03-04T06:54:13.613Z,3.89
2023-03-04T06:59:17.557Z,4.00
2023-03-04T07:04:20.150Z,4.04
2023-03-04T07:09:22.725Z,4.14
2023-03-04T07:14:27.813Z,4.31
2023-03-04T07:19:30.455Z,4.41
2023-03-04T07:24:33.018Z,4.56
2023-03-04T07:29:37.012Z,4.67
2023-03-04T07:34:39.678Z,4.80
2023-03-04T07:39:42.225Z,4.88
2023-03-04T07:44:46.138Z,5.12
2023-03-04T07:49:48.788Z,5.42
2023-03-04T07:54:51.457Z,5.73
2023-03-04T07:59:55.336Z,5.85
2023-03-04T08:04:57.900Z,5.78
2023-03-04T08:10:00.568Z,5.79
2023-03-04T08:15:05.027Z,5.85
2023-03-04T08:20:08.754Z,6.01
2023-03-04T08:25:12.147Z,5.71
2023-03-04T08:30:16.747Z,5.60
2023-03-04T08:35:19.575Z,5.35
2023-03-04T08:40:22.391Z,5.22
2023-03-04T08:45:26.721Z,5.17
2023-03-04T08:50:29.299Z,5.22
2023-03-04T08:55:31.871Z,5.61
2023-03-04T09:00:36.952Z,5.70
2023-03-04T09:05:40.080Z,5.89
2023-03-04T09:10:42.848Z,5.82
2023-03-04T09:15:48.120Z,5.86
2023-03-04T09:20:51.457Z,5.98
2023-03-04T09:25:54.175Z,6.13
2023-03-04T09:30:58.105Z,6.14
2023-03-04T09:36:00.801Z,6.21
2023-03-04T09:41:07.607Z,6.13
2023-03-04T09:46:16.522Z,6.17
2023-03-04T09:51:23.024Z,6.31
2023-03-04T09:56:26.642Z,6.52
2023-03-04T10:01:32.961Z,6.23
2023-03-04T10:06:35.842Z,6.04
2023-03-04T10:11:43.667Z,5.96
2023-03-04T10:16:53.064Z,5.74
2023-03-04T10:21:55.826Z,5.65
2023-03-04T10:27:03.606Z,5.60
2023-03-04T10:32:13.283Z,6.15
2023-03-04T10:37:15.887Z,6.91
2023-03-04T10:42:27.683Z,8.32
2023-03-04T10:47:34.574Z,9.85
2023-03-04T10:52:41.284Z,9.28
2023-03-04T10:57:45.978Z,8.12
2023-03-04T11:02:50.591Z,7.15
2023-03-04T11:07:57.052Z,6.55
2023-03-04T11:13:02.933Z,6.81
2023-03-04T11:18:11.958Z,7.44
2023-03-04T11:23:18.335Z,7.88
2023-03-04T11:28:25.205Z,7.81
2023-03-04T11:33:37.195Z,8.54
2023-03-04T11:38:45.461Z,10.34
2023-03-04T11:43:48.647Z,11.06
2023-03-04T11:48:58.805Z,9.13
2023-03-04T11:54:17.765Z,8.39
2023-03-04T11:59:45.826Z,7.96
2023-03-04T12:05:27.121Z,8.64
2023-03-04T12:10:36.834Z,9.65
2023-03-04T12:15:45.288Z,10.04
2023-03-04T12:21:05.677Z,8.97
2023-03-04T12:26:21.276Z,7.87
2023-03-04T12:31:35.365Z,7.55
2023-03-04T12:36:45.599Z,7.59
2023-03-04T12:41:56.939Z,8.09
2023-03-04T12:47:18.088Z,9.16
2023-03-04T12:52:38.324Z,9.32
2023-03-04T12:57:41.707Z,10.76
2023-03-04T13:02:51.675Z,9.87
2023-03-04T13:08:04.841Z,8.89
2023-03-04T13:13:27.425Z,8.79
2023-03-04T13:18:36.544Z,8.36
2023-03-04T13:23:39.366Z,8.24
2023-03-04T13:28:41.992Z,8.47
2023-03-04T13:34:05.570Z,8.99
2023-03-04T13:39:25.801Z,8.49
2023-03-04T13:44:59.579Z,8.43
2023-03-04T13:50:29.962Z,8.47
2023-03-04T13:55:36.248Z,8.43
2023-03-04T14:00:49.556Z,8.32
2023-03-04T14:06:16.525Z,7.81
2023-03-04T14:11:27.151Z,8.08
2023-03-04T14:16:33.182Z,8.49
2023-03-04T14:21:37.744Z,8.73
2023-03-04T14:26:40.419Z,8.36
2023-03-04T14:31:43.055Z,8.11
2023-03-04T14:36:46.981Z,7.81
2023-03-04T14:41:51.515Z,7.92
2023-03-04T14:47:07.496Z,7.76
2023-03-04T14:52:32.854Z,8.89
2023-03-04T14:57:36.361Z,9.48
2023-03-04T15:02:39.800Z,8.69
2023-03-04T15:07:45.094Z,7.83
2023-03-04T15:12:52.805Z,7.09
2023-03-04T15:17:59.746Z,6.86
2023-03-04T15:23:07.283Z,6.80
2023-03-04T15:28:16.739Z,6.88
2023-03-04T15:33:21.253Z,7.09
2023-03-04T15:38:26.067Z,7.25
2023-03-04T15:43:29.635Z,7.50
2023-03-04T15:48:32.029Z,7.63
2023-03-04T15:53:39.619Z,7.26
2023-03-04T15:58:43.266Z,6.90
2023-03-04T16:03:45.858Z,6.75
2023-03-04T16:08:51.507Z,6.72
2023-03-04T16:13:54.177Z,6.56
2023-03-04T16:18:56.865Z,6.39
2023-03-04T16:24:01.159Z,6.27
2023-03-04T16:29:04.430Z,6.19
2023-03-04T16:34:06.947Z,6.16
2023-03-04T16:39:23.016Z,6.02
2023-03-04T16:44:25.618Z,5.91
2023-03-04T16:49:30.271Z,5.80
2023-03-04T16:54:36.686Z,5.74
2023-03-04T16:59:39.887Z,5.68
2023-03-04T17:04:42.933Z,5.52
2023-03-04T17:09:46.824Z,5.46
2023-03-04T17:14:49.396Z,5.40
2023-03-04T17:19:51.986Z,5.37
2023-03-04T17:24:55.898Z,5.36
2023-03-04T17:29:58.465Z,5.28
2023-03-04T17:35:01.077Z,5.27
2023-03-04T17:40:06.172Z,5.20
2023-03-04T17:45:10.291Z,5.16
2023-03-04T17:50:13.714Z,5.13
2023-03-04T17:55:17.844Z,5.03
2023-03-04T18:00:21.469Z,4.94
2023-03-04T18:05:23.993Z,4.84
2023-03-04T18:10:28.316Z,4.81
2023-03-04T18:15:31.164Z,4.77
2023-03-04T18:20:34.468Z,4.71
2023-03-04T18:25:38.383Z,4.63
2023-03-04T18:30:40.945Z,4.60
2023-03-04T18:35:43.528Z,4.55
2023-03-04T18:40:47.442Z,4.49
2023-03-04T18:45:53.292Z,4.45
2023-03-04T18:50:58.257Z,4.42
2023-03-04T18:56:07.128Z,4.39
2023-03-04T19:01:12.754Z,4.34
2023-03-04T19:06:15.800Z,4.33
2023-03-04T19:11:19.743Z,4.27
2023-03-04T19:16:22.325Z,4.25
2023-03-04T19:21:24.867Z,4.23
2023-03-04T19:26:28.746Z,4.18
2023-03-04T19:31:31.280Z,4.17
2023-03-04T19:36:34.097Z,4.12
2023-03-04T19:41:38.049Z,4.10
2023-03-04T19:46:40.624Z,4.07
2023-03-04T19:51:43.194Z,4.01
2023-03-04T19:56:47.118Z,3.95
2023-03-04T20:01:49.756Z,3.96
2023-03-04T20:06:52.499Z,3.92
2023-03-04T20:11:59.272Z,3.91
2023-03-04T20:17:03.920Z,3.83
2023-03-04T20:22:07.013Z,3.76
2023-03-04T20:27:14.389Z,3.70
2023-03-04T20:32:17.057Z,3.60
2023-03-04T20:37:19.699Z,3.54
2023-03-04T20:42:23.657Z,3.51
2023-03-04T20:47:26.364Z,3.53
2023-03-04T20:52:28.917Z,3.53
2023-03-04T20:57:32.856Z,3.51
2023-03-04T21:02:35.434Z,3.48
2023-03-04T21:07:38.002Z,3.37
2023-03-04T21:12:41.906Z,3.36
2023-03-04T21:17:44.537Z,3.33
2023-03-04T21:22:47.107Z,3.31
2023-03-04T21:27:51.045Z,3.33
2023-03-04T21:32:54.176Z,3.32
2023-03-04T21:37:57.067Z,3.27
2023-03-04T21:43:01.065Z,3.27
2023-03-04T21:48:03.640Z,3.22
2023-03-04T21:53:06.214Z,3.15
2023-03-04T21:58:10.107Z,3.12
2023-03-04T22:03:12.630Z,3.07
2023-03-04T22:08:15.926Z,3.02
2023-03-04T22:13:19.790Z,3.02
2023-03-04T22:18:22.336Z,3.00
2023-03-04T22:23:24.891Z,2.99
2023-03-04T22:28:29.729Z,2.98
2023-03-04T22:33:37.122Z,2.92
2023-03-04T22:38:40.021Z,2.88
2023-03-04T22:43:44.463Z,2.82
2023-03-04T22:48:47.104Z,2.82
2023-03-04T22:53:50.456Z,2.86
2023-03-04T22:58:54.410Z,2.85
2023-03-04T23:03:56.921Z,2.85
2023-03-04T23:09:00.404Z,2.81
2023-03-04T23:14:06.881Z,2.78
2023-03-04T23:19:10.336Z,2.73
2023-03-04T23:24:14.000Z,2.73
2023-03-04T23:29:17.946Z,2.73
2023-03-04T23:34:20.540Z,2.77
2023-03-04T23:39:23.115Z,2.77
2023-03-04T23:44:27.014Z,2.79
2023-03-04T23:49:29.595Z,2.78
2023-03-04T23:54:32.239Z,2.76
2023-03-04T23:59:39.214Z,2.75
